sensor_id;sensor_type;location;lat;lon;timestamp;P1;durP1;ratioP1;P2;durP2;ratioP2
3427;SDS011;1727;42.624;23.406;2022-10-28T00:01:35;5.33;;;4.00;;
3427;SDS011;1727;42.624;23.406;2022-10-28T00:04:02;5.70;;;4.17;;
3427;SDS011;1727;42.624;23.406;2022-10-28T00:06:30;4.40;;;4.00;;
3427;SDS011;1727;42.624;23.406;2022-10-28T00:08:59;5.40;;;3.67;;
3427;SDS011;1727;42.624;23.406;2022-10-28T00:11:28;4.10;;;3.80;;
3427;SDS011;1727;42.624;23.406;2022-10-28T00:13:56;7.10;;;3.70;;
3427;SDS011;1727;42.624;23.406;2022-10-28T00:16:26;5.20;;;4.10;;
3427;SDS011;1727;42.624;23.406;2022-10-28T00:18:54;6.50;;;5.07;;
3427;SDS011;1727;42.624;23.406;2022-10-28T00:21:21;4.70;;;3.90;;
3427;SDS011;1727;42.624;23.406;2022-10-28T00:23:50;6.03;;;4.50;;
3427;SDS011;1727;42.624;23.406;2022-10-28T00:26:19;5.97;;;5.10;;
3427;SDS011;1727;42.624;23.406;2022-10-28T00:28:48;5.50;;;4.97;;
3427;SDS011;1727;42.624;23.406;2022-10-28T00:31:17;8.53;;;4.90;;
3427;SDS011;1727;42.624;23.406;2022-10-28T00:33:45;6.47;;;5.70;;
3427;SDS011;1727;42.624;23.406;2022-10-28T00:36:13;10.37;;;6.43;;
3427;SDS011;1727;42.624;23.406;2022-10-28T00:38:41;7.43;;;5.90;;
3427;SDS011;1727;42.624;23.406;2022-10-28T00:41:10;6.97;;;5.80;;
3427;SDS011;1727;42.624;23.406;2022-10-28T00:43:40;9.00;;;5.73;;
3427;SDS011;1727;42.624;23.406;2022-10-28T00:46:14;6.73;;;5.37;;
3427;SDS011;1727;42.624;23.406;2022-10-28T00:48:45;9.53;;;7.20;;
3427;SDS011;1727;42.624;23.406;2022-10-28T00:51:15;9.90;;;6.10;;
3427;SDS011;1727;42.624;23.406;2022-10-28T00:53:45;6.60;;;5.40;;
3427;SDS011;1727;42.624;23.406;2022-10-28T00:56:13;10.53;;;5.03;;
3427;SDS011;1727;42.624;23.406;2022-10-28T00:58:43;7.57;;;5.60;;
3427;SDS011;1727;42.624;23.406;2022-10-28T01:01:12;6.40;;;5.30;;
3427;SDS011;1727;42.624;23.406;2022-10-28T01:03:39;5.93;;;5.00;;
3427;SDS011;1727;42.624;23.406;2022-10-28T01:06:06;8.57;;;4.47;;
3427;SDS011;1727;42.624;23.406;2022-10-28T01:08:33;6.30;;;4.47;;
3427;SDS011;1727;42.624;23.406;2022-10-28T01:14:09;9.13;;;4.73;;
3427;SDS011;1727;42.624;23.406;2022-10-28T01:16:45;4.87;;;4.30;;
3427;SDS011;1727;42.624;23.406;2022-10-28T01:19:38;9.60;;;4.50;;
3427;SDS011;1727;42.624;23.406;2022-10-28T01:22:23;5.73;;;4.30;;
3427;SDS011;1727;42.624;23.406;2022-10-28T01:33:57;6.23;;;4.73;;
3427;SDS011;1727;42.624;23.406;2022-10-28T01:36:34;6.67;;;4.60;;
3427;SDS011;1727;42.624;23.406;2022-10-28T01:39:10;9.70;;;4.90;;
3427;SDS011;1727;42.624;23.406;2022-10-28T01:41:46;6.83;;;4.50;;
3427;SDS011;1727;42.624;23.406;2022-10-28T01:44:19;6.73;;;5.03;;
3427;SDS011;1727;42.624;23.406;2022-10-28T01:46:52;6.80;;;5.50;;
3427;SDS011;1727;42.624;23.406;2022-10-28T01:49:26;5.70;;;4.93;;
3427;SDS011;1727;42.624;23.406;2022-10-28T01:51:59;6.10;;;5.30;;
3427;SDS011;1727;42.624;23.406;2022-10-28T01:54:31;6.10;;;5.50;;
3427;SDS011;1727;42.624;23.406;2022-10-28T01:57:00;8.33;;;4.90;;
3427;SDS011;1727;42.624;23.406;2022-10-28T01:59:29;10.50;;;6.17;;
3427;SDS011;1727;42.624;23.406;2022-10-28T02:02:00;12.20;;;6.70;;
3427;SDS011;1727;42.624;23.406;2022-10-28T02:04:27;13.63;;;8.00;;
3427;SDS011;1727;42.624;23.406;2022-10-28T02:06:54;10.93;;;7.00;;
3427;SDS011;1727;42.624;23.406;2022-10-28T02:09:27;11.53;;;7.40;;
3427;SDS011;1727;42.624;23.406;2022-10-28T02:17:51;10.63;;;5.87;;
3427;SDS011;1727;42.624;23.406;2022-10-28T02:20:28;8.73;;;5.87;;
3427;SDS011;1727;42.624;23.406;2022-10-28T02:23:04;7.47;;;4.63;;
3427;SDS011;1727;42.624;23.406;2022-10-28T02:25:42;5.83;;;5.13;;
3427;SDS011;1727;42.624;23.406;2022-10-28T02:28:13;6.27;;;4.73;;
3427;SDS011;1727;42.624;23.406;2022-10-28T02:30:45;6.03;;;5.43;;
3427;SDS011;1727;42.624;23.406;2022-10-28T02:33:18;6.50;;;5.30;;
3427;SDS011;1727;42.624;23.406;2022-10-28T02:35:49;12.13;;;6.00;;
3427;SDS011;1727;42.624;23.406;2022-10-28T02:38:22;7.83;;;5.57;;
3427;SDS011;1727;42.624;23.406;2022-10-28T02:40:52;8.03;;;6.10;;
3427;SDS011;1727;42.624;23.406;2022-10-28T02:43:22;7.50;;;5.70;;
3427;SDS011;1727;42.624;23.406;2022-10-28T02:45:50;6.33;;;5.23;;
3427;SDS011;1727;42.624;23.406;2022-10-28T02:48:22;5.73;;;5.10;;
3427;SDS011;1727;42.624;23.406;2022-10-28T02:50:59;9.00;;;7.33;;
3427;SDS011;1727;42.624;23.406;2022-10-28T02:53:31;8.90;;;5.60;;
3427;SDS011;1727;42.624;23.406;2022-10-28T02:56:08;6.93;;;5.20;;
3427;SDS011;1727;42.624;23.406;2022-10-28T02:58:37;6.87;;;5.17;;
3427;SDS011;1727;42.624;23.406;2022-10-28T03:01:05;7.00;;;5.50;;
3427;SDS011;1727;42.624;23.406;2022-10-28T03:03:33;7.10;;;5.70;;
3427;SDS011;1727;42.624;23.406;2022-10-28T03:06:00;7.07;;;5.57;;
3427;SDS011;1727;42.624;23.406;2022-10-28T03:08:26;7.97;;;5.30;;
3427;SDS011;1727;42.624;23.406;2022-10-28T03:10:53;8.13;;;5.47;;
3427;SDS011;1727;42.624;23.406;2022-10-28T03:13:20;12.93;;;7.00;;
3427;SDS011;1727;42.624;23.406;2022-10-28T03:15:47;5.50;;;5.00;;
3427;SDS011;1727;42.624;23.406;2022-10-28T03:18:13;10.70;;;5.70;;
3427;SDS011;1727;42.624;23.406;2022-10-28T03:20:41;7.67;;;6.23;;
3427;SDS011;1727;42.624;23.406;2022-10-28T03:23:08;7.37;;;5.50;;
3427;SDS011;1727;42.624;23.406;2022-10-28T03:25:35;5.97;;;5.07;;
3427;SDS011;1727;42.624;23.406;2022-10-28T03:28:02;7.13;;;4.83;;
3427;SDS011;1727;42.624;23.406;2022-10-28T03:30:29;6.73;;;5.00;;
3427;SDS011;1727;42.624;23.406;2022-10-28T03:32:55;6.10;;;5.00;;
3427;SDS011;1727;42.624;23.406;2022-10-28T03:35:22;5.77;;;5.17;;
3427;SDS011;1727;42.624;23.406;2022-10-28T03:37:51;7.20;;;5.57;;
3427;SDS011;1727;42.624;23.406;2022-10-28T03:40:17;5.30;;;4.80;;
3427;SDS011;1727;42.624;23.406;2022-10-28T03:42:44;5.80;;;4.83;;
3427;SDS011;1727;42.624;23.406;2022-10-28T03:45:11;8.63;;;5.00;;
3427;SDS011;1727;42.624;23.406;2022-10-28T03:47:38;6.30;;;5.50;;
3427;SDS011;1727;42.624;23.406;2022-10-28T03:50:05;12.90;;;6.60;;
3427;SDS011;1727;42.624;23.406;2022-10-28T03:52:33;11.20;;;7.20;;
3427;SDS011;1727;42.624;23.406;2022-10-28T03:55:01;9.83;;;6.70;;
3427;SDS011;1727;42.624;23.406;2022-10-28T03:57:29;12.13;;;7.07;;
3427;SDS011;1727;42.624;23.406;2022-10-28T03:59:56;11.20;;;7.27;;
3427;SDS011;1727;42.624;23.406;2022-10-28T04:02:23;21.60;;;10.57;;
3427;SDS011;1727;42.624;23.406;2022-10-28T04:04:50;12.43;;;9.50;;
3427;SDS011;1727;42.624;23.406;2022-10-28T04:07:17;21.03;;;10.87;;
3427;SDS011;1727;42.624;23.406;2022-10-28T04:09:44;22.67;;;12.03;;
3427;SDS011;1727;42.624;23.406;2022-10-28T04:12:15;12.20;;;8.37;;
3427;SDS011;1727;42.624;23.406;2022-10-28T04:14:42;7.77;;;7.00;;
3427;SDS011;1727;42.624;23.406;2022-10-28T04:17:09;11.77;;;6.33;;
3427;SDS011;1727;42.624;23.406;2022-10-28T04:19:36;7.97;;;6.80;;
3427;SDS011;1727;42.624;23.406;2022-10-28T04:22:02;9.87;;;6.43;;
3427;SDS011;1727;42.624;23.406;2022-10-28T04:24:29;7.40;;;5.30;;
3427;SDS011;1727;42.624;23.406;2022-10-28T04:26:56;10.93;;;6.70;;
3427;SDS011;1727;42.624;23.406;2022-10-28T04:29:24;5.87;;;5.27;;
3427;SDS011;1727;42.624;23.406;2022-10-28T04:31:51;7.77;;;5.37;;
3427;SDS011;1727;42.624;23.406;2022-10-28T04:34:18;6.47;;;5.67;;
3427;SDS011;1727;42.624;23.406;2022-10-28T04:36:44;5.93;;;5.00;;
3427;SDS011;1727;42.624;23.406;2022-10-28T04:39:11;6.13;;;4.97;;
3427;SDS011;1727;42.624;23.406;2022-10-28T04:41:38;7.43;;;5.83;;
3427;SDS011;1727;42.624;23.406;2022-10-28T04:44:05;12.40;;;5.67;;
3427;SDS011;1727;42.624;23.406;2022-10-28T04:46:33;14.33;;;5.90;;
3427;SDS011;1727;42.624;23.406;2022-10-28T04:49:00;9.17;;;6.20;;
3427;SDS011;1727;42.624;23.406;2022-10-28T04:51:27;10.10;;;5.90;;
3427;SDS011;1727;42.624;23.406;2022-10-28T04:53:53;6.60;;;5.27;;
3427;SDS011;1727;42.624;23.406;2022-10-28T04:56:20;7.30;;;5.17;;
3427;SDS011;1727;42.624;23.406;2022-10-28T04:58:47;6.03;;;5.10;;
3427;SDS011;1727;42.624;23.406;2022-10-28T05:01:14;17.43;;;5.93;;
3427;SDS011;1727;42.624;23.406;2022-10-28T05:03:42;8.70;;;6.90;;
3427;SDS011;1727;42.624;23.406;2022-10-28T05:06:08;9.30;;;5.80;;
3427;SDS011;1727;42.624;23.406;2022-10-28T05:08:35;6.63;;;6.03;;
3427;SDS011;1727;42.624;23.406;2022-10-28T05:11:02;13.17;;;6.30;;
3427;SDS011;1727;42.624;23.406;2022-10-28T05:13:29;6.70;;;5.00;;
3427;SDS011;1727;42.624;23.406;2022-10-28T05:15:55;11.00;;;6.20;;
3427;SDS011;1727;42.624;23.406;2022-10-28T05:18:22;17.87;;;5.97;;
3427;SDS011;1727;42.624;23.406;2022-10-28T05:20:50;16.13;;;5.50;;
3427;SDS011;1727;42.624;23.406;2022-10-28T05:23:19;25.13;;;8.10;;
3427;SDS011;1727;42.624;23.406;2022-10-28T05:25:46;20.07;;;8.07;;
3427;SDS011;1727;42.624;23.406;2022-10-28T05:28:12;8.00;;;5.90;;
3427;SDS011;1727;42.624;23.406;2022-10-28T05:30:39;6.87;;;5.03;;
3427;SDS011;1727;42.624;23.406;2022-10-28T05:33:06;15.70;;;8.97;;
3427;SDS011;1727;42.624;23.406;2022-10-28T05:35:34;16.77;;;10.70;;
3427;SDS011;1727;42.624;23.406;2022-10-28T05:38:03;27.63;;;11.60;;
3427;SDS011;1727;42.624;23.406;2022-10-28T05:40:30;21.40;;;14.17;;
3427;SDS011;1727;42.624;23.406;2022-10-28T05:42:57;23.83;;;13.63;;
3427;SDS011;1727;42.624;23.406;2022-10-28T05:45:24;44.83;;;14.30;;
3427;SDS011;1727;42.624;23.406;2022-10-28T05:47:51;42.10;;;14.00;;
3427;SDS011;1727;42.624;23.406;2022-10-28T05:50:18;45.30;;;15.60;;
3427;SDS011;1727;42.624;23.406;2022-10-28T05:52:45;35.50;;;14.60;;
3427;SDS011;1727;42.624;23.406;2022-10-28T05:55:14;27.60;;;12.93;;
3427;SDS011;1727;42.624;23.406;2022-10-28T05:57:43;17.63;;;11.27;;
3427;SDS011;1727;42.624;23.406;2022-10-28T06:00:10;25.97;;;12.53;;
3427;SDS011;1727;42.624;23.406;2022-10-28T06:02:38;30.83;;;12.60;;
3427;SDS011;1727;42.624;23.406;2022-10-28T06:05:05;25.77;;;12.40;;
3427;SDS011;1727;42.624;23.406;2022-10-28T06:07:32;26.30;;;12.70;;
3427;SDS011;1727;42.624;23.406;2022-10-28T06:10:00;21.87;;;11.40;;
3427;SDS011;1727;42.624;23.406;2022-10-28T06:12:28;13.37;;;10.60;;
3427;SDS011;1727;42.624;23.406;2022-10-28T06:14:55;30.27;;;15.30;;
3427;SDS011;1727;42.624;23.406;2022-10-28T06:17:22;24.70;;;13.93;;
3427;SDS011;1727;42.624;23.406;2022-10-28T06:19:49;24.87;;;14.07;;
3427;SDS011;1727;42.624;23.406;2022-10-28T06:22:16;34.17;;;17.53;;
3427;SDS011;1727;42.624;23.406;2022-10-28T06:24:43;29.23;;;16.10;;
3427;SDS011;1727;42.624;23.406;2022-10-28T06:27:10;29.40;;;12.77;;
3427;SDS011;1727;42.624;23.406;2022-10-28T06:29:38;25.60;;;11.80;;
3427;SDS011;1727;42.624;23.406;2022-10-28T06:32:07;17.23;;;9.47;;
3427;SDS011;1727;42.624;23.406;2022-10-28T06:34:35;14.00;;;8.87;;
3427;SDS011;1727;42.624;23.406;2022-10-28T06:37:03;21.03;;;9.90;;
3427;SDS011;1727;42.624;23.406;2022-10-28T06:39:31;15.03;;;8.57;;
3427;SDS011;1727;42.624;23.406;2022-10-28T06:41:57;15.27;;;8.83;;
3427;SDS011;1727;42.624;23.406;2022-10-28T06:44:24;16.80;;;9.10;;
3427;SDS011;1727;42.624;23.406;2022-10-28T06:46:52;18.93;;;9.60;;
3427;SDS011;1727;42.624;23.406;2022-10-28T06:49:19;12.60;;;8.53;;
3427;SDS011;1727;42.624;23.406;2022-10-28T06:51:46;16.43;;;8.57;;
3427;SDS011;1727;42.624;23.406;2022-10-28T06:54:14;20.23;;;9.60;;
3427;SDS011;1727;42.624;23.406;2022-10-28T06:56:40;17.53;;;8.13;;
3427;SDS011;1727;42.624;23.406;2022-10-28T06:59:09;12.30;;;8.03;;
3427;SDS011;1727;42.624;23.406;2022-10-28T07:01:36;14.20;;;8.57;;
3427;SDS011;1727;42.624;23.406;2022-10-28T07:04:04;17.87;;;9.47;;
3427;SDS011;1727;42.624;23.406;2022-10-28T07:06:31;19.13;;;9.43;;
3427;SDS011;1727;42.624;23.406;2022-10-28T07:08:58;11.77;;;8.53;;
3427;SDS011;1727;42.624;23.406;2022-10-28T07:11:25;23.90;;;10.17;;
3427;SDS011;1727;42.624;23.406;2022-10-28T07:13:52;10.93;;;9.10;;
3427;SDS011;1727;42.624;23.406;2022-10-28T07:16:18;18.57;;;7.37;;
3427;SDS011;1727;42.624;23.406;2022-10-28T07:18:45;13.37;;;8.60;;
3427;SDS011;1727;42.624;23.406;2022-10-28T07:21:13;19.73;;;9.83;;
3427;SDS011;1727;42.624;23.406;2022-10-28T07:23:42;19.83;;;9.30;;
3427;SDS011;1727;42.624;23.406;2022-10-28T07:26:11;25.43;;;10.70;;
3427;SDS011;1727;42.624;23.406;2022-10-28T07:28:38;13.37;;;9.77;;
3427;SDS011;1727;42.624;23.406;2022-10-28T07:31:06;13.40;;;9.23;;
3427;SDS011;1727;42.624;23.406;2022-10-28T07:33:33;11.07;;;9.87;;
3427;SDS011;1727;42.624;23.406;2022-10-28T07:36:01;12.50;;;8.57;;
3427;SDS011;1727;42.624;23.406;2022-10-28T07:38:29;13.30;;;8.40;;
3427;SDS011;1727;42.624;23.406;2022-10-28T07:40:56;13.53;;;7.63;;
3427;SDS011;1727;42.624;23.406;2022-10-28T07:43:23;11.90;;;7.17;;
3427;SDS011;1727;42.624;23.406;2022-10-28T07:45:54;10.50;;;7.03;;
3427;SDS011;1727;42.624;23.406;2022-10-28T07:48:21;19.93;;;6.47;;
3427;SDS011;1727;42.624;23.406;2022-10-28T07:50:48;14.83;;;6.73;;
3427;SDS011;1727;42.624;23.406;2022-10-28T07:53:15;10.10;;;7.90;;
3427;SDS011;1727;42.624;23.406;2022-10-28T07:55:43;10.10;;;6.27;;
3427;SDS011;1727;42.624;23.406;2022-10-28T07:58:10;25.40;;;7.67;;
3427;SDS011;1727;42.624;23.406;2022-10-28T08:00:36;12.37;;;6.63;;
3427;SDS011;1727;42.624;23.406;2022-10-28T08:03:03;15.23;;;7.33;;
3427;SDS011;1727;42.624;23.406;2022-10-28T08:05:30;20.07;;;8.60;;
3427;SDS011;1727;42.624;23.406;2022-10-28T08:07:58;11.60;;;7.53;;
3427;SDS011;1727;42.624;23.406;2022-10-28T08:10:25;12.23;;;6.97;;
3427;SDS011;1727;42.624;23.406;2022-10-28T08:12:55;10.10;;;7.20;;
3427;SDS011;1727;42.624;23.406;2022-10-28T08:15:23;19.53;;;7.77;;
3427;SDS011;1727;42.624;23.406;2022-10-28T08:17:50;10.70;;;8.67;;
3427;SDS011;1727;42.624;23.406;2022-10-28T08:20:17;15.70;;;9.03;;
3427;SDS011;1727;42.624;23.406;2022-10-28T08:22:44;13.40;;;7.63;;
3427;SDS011;1727;42.624;23.406;2022-10-28T08:25:11;20.53;;;8.63;;
3427;SDS011;1727;42.624;23.406;2022-10-28T08:27:38;16.10;;;8.40;;
3427;SDS011;1727;42.624;23.406;2022-10-28T08:30:08;11.90;;;6.87;;
3427;SDS011;1727;42.624;23.406;2022-10-28T08:32:35;14.60;;;7.93;;
3427;SDS011;1727;42.624;23.406;2022-10-28T08:35:02;28.77;;;8.30;;
3427;SDS011;1727;42.624;23.406;2022-10-28T08:37:29;19.07;;;6.90;;
3427;SDS011;1727;42.624;23.406;2022-10-28T08:39:56;17.80;;;6.80;;
3427;SDS011;1727;42.624;23.406;2022-10-28T08:42:26;12.83;;;7.47;;
3427;SDS011;1727;42.624;23.406;2022-10-28T08:45:10;11.30;;;7.17;;
3427;SDS011;1727;42.624;23.406;2022-10-28T08:47:45;20.13;;;7.60;;
3427;SDS011;1727;42.624;23.406;2022-10-28T08:50:20;14.47;;;7.87;;
3427;SDS011;1727;42.624;23.406;2022-10-28T08:52:50;23.50;;;8.00;;
3427;SDS011;1727;42.624;23.406;2022-10-28T08:55:22;11.73;;;6.57;;
3427;SDS011;1727;42.624;23.406;2022-10-28T08:57:52;22.63;;;9.30;;
3427;SDS011;1727;42.624;23.406;2022-10-28T09:00:24;10.17;;;7.27;;
3427;SDS011;1727;42.624;23.406;2022-10-28T09:02:58;15.73;;;8.63;;
3427;SDS011;1727;42.624;23.406;2022-10-28T09:05:33;24.63;;;8.50;;
3427;SDS011;1727;42.624;23.406;2022-10-28T09:08:00;15.27;;;7.87;;
3427;SDS011;1727;42.624;23.406;2022-10-28T09:10:38;16.50;;;7.33;;
3427;SDS011;1727;42.624;23.406;2022-10-28T09:13:16;16.03;;;8.13;;
3427;SDS011;1727;42.624;23.406;2022-10-28T09:15:53;9.13;;;6.90;;
3427;SDS011;1727;42.624;23.406;2022-10-28T09:18:28;16.10;;;7.17;;
3427;SDS011;1727;42.624;23.406;2022-10-28T09:21:12;13.50;;;6.70;;
3427;SDS011;1727;42.624;23.406;2022-10-28T09:23:47;11.90;;;6.90;;
3427;SDS011;1727;42.624;23.406;2022-10-28T09:26:23;7.53;;;6.00;;
3427;SDS011;1727;42.624;23.406;2022-10-28T09:28:59;10.40;;;6.67;;
3427;SDS011;1727;42.624;23.406;2022-10-28T09:31:36;8.73;;;6.00;;
3427;SDS011;1727;42.624;23.406;2022-10-28T09:34:15;10.70;;;5.40;;
3427;SDS011;1727;42.624;23.406;2022-10-28T09:36:50;12.37;;;6.00;;
3427;SDS011;1727;42.624;23.406;2022-10-28T09:39:21;8.37;;;5.60;;
3427;SDS011;1727;42.624;23.406;2022-10-28T09:41:52;5.80;;;5.20;;
3427;SDS011;1727;42.624;23.406;2022-10-28T09:44:20;9.20;;;5.70;;
3427;SDS011;1727;42.624;23.406;2022-10-28T09:46:54;17.03;;;5.77;;
3427;SDS011;1727;42.624;23.406;2022-10-28T09:49:25;9.10;;;5.70;;
3427;SDS011;1727;42.624;23.406;2022-10-28T09:51:55;13.20;;;9.47;;
3427;SDS011;1727;42.624;23.406;2022-10-28T09:54:29;10.93;;;6.33;;
3427;SDS011;1727;42.624;23.406;2022-10-28T09:56:59;7.90;;;4.97;;
3427;SDS011;1727;42.624;23.406;2022-10-28T09:59:29;5.80;;;4.63;;
3427;SDS011;1727;42.624;23.406;2022-10-28T10:01:57;6.50;;;5.20;;
3427;SDS011;1727;42.624;23.406;2022-10-28T10:04:24;7.33;;;4.70;;
3427;SDS011;1727;42.624;23.406;2022-10-28T10:06:53;8.37;;;5.20;;
3427;SDS011;1727;42.624;23.406;2022-10-28T10:09:24;8.03;;;5.30;;
3427;SDS011;1727;42.624;23.406;2022-10-28T10:11:55;6.37;;;4.37;;
3427;SDS011;1727;42.624;23.406;2022-10-28T10:14:27;6.03;;;4.10;;
3427;SDS011;1727;42.624;23.406;2022-10-28T10:16:58;5.07;;;4.67;;
3427;SDS011;1727;42.624;23.406;2022-10-28T10:19:28;6.93;;;4.60;;
3427;SDS011;1727;42.624;23.406;2022-10-28T10:22:30;4.53;;;4.00;;
3427;SDS011;1727;42.624;23.406;2022-10-28T10:24:58;5.47;;;4.40;;
3427;SDS011;1727;42.624;23.406;2022-10-28T10:27:25;4.77;;;4.20;;
3427;SDS011;1727;42.624;23.406;2022-10-28T10:29:54;9.87;;;5.53;;
3427;SDS011;1727;42.624;23.406;2022-10-28T10:32:24;5.00;;;3.83;;
3427;SDS011;1727;42.624;23.406;2022-10-28T10:34:55;5.33;;;4.83;;
3427;SDS011;1727;42.624;23.406;2022-10-28T10:37:26;4.40;;;4.10;;
3427;SDS011;1727;42.624;23.406;2022-10-28T10:40:03;5.80;;;4.23;;
3427;SDS011;1727;42.624;23.406;2022-10-28T10:42:32;6.43;;;4.10;;
3427;SDS011;1727;42.624;23.406;2022-10-28T10:45:00;12.87;;;5.00;;
3427;SDS011;1727;42.624;23.406;2022-10-28T10:47:35;7.50;;;4.80;;
3427;SDS011;1727;42.624;23.406;2022-10-28T10:50:21;4.80;;;4.40;;
3427;SDS011;1727;42.624;23.406;2022-10-28T10:52:53;5.23;;;4.67;;
3427;SDS011;1727;42.624;23.406;2022-10-28T10:55:24;5.33;;;4.87;;
3427;SDS011;1727;42.624;23.406;2022-10-28T10:57:57;7.10;;;4.40;;
3427;SDS011;1727;42.624;23.406;2022-10-28T11:00:27;8.23;;;4.57;;
3427;SDS011;1727;42.624;23.406;2022-10-28T11:02:58;7.83;;;4.80;;
3427;SDS011;1727;42.624;23.406;2022-10-28T11:05:26;4.27;;;3.83;;
3427;SDS011;1727;42.624;23.406;2022-10-28T11:07:54;14.93;;;4.87;;
3427;SDS011;1727;42.624;23.406;2022-10-28T11:10:29;8.20;;;4.83;;
3427;SDS011;1727;42.624;23.406;2022-10-28T11:12:58;5.33;;;4.27;;
3427;SDS011;1727;42.624;23.406;2022-10-28T11:15:28;8.23;;;5.07;;
3427;SDS011;1727;42.624;23.406;2022-10-28T11:17:58;5.80;;;4.20;;
3427;SDS011;1727;42.624;23.406;2022-10-28T11:20:27;5.83;;;5.23;;
3427;SDS011;1727;42.624;23.406;2022-10-28T11:23:08;10.00;;;4.70;;
3427;SDS011;1727;42.624;23.406;2022-10-28T11:25:48;13.00;;;4.50;;
3427;SDS011;1727;42.624;23.406;2022-10-28T11:28:22;6.90;;;5.57;;
3427;SDS011;1727;42.624;23.406;2022-10-28T11:31:14;10.60;;;5.10;;
3427;SDS011;1727;42.624;23.406;2022-10-28T11:33:55;7.60;;;4.97;;
3427;SDS011;1727;42.624;23.406;2022-10-28T11:36:36;10.17;;;4.70;;
3427;SDS011;1727;42.624;23.406;2022-10-28T11:39:18;5.83;;;4.20;;
3427;SDS011;1727;42.624;23.406;2022-10-28T11:44:39;7.03;;;3.70;;
3427;SDS011;1727;42.624;23.406;2022-10-28T11:47:18;4.07;;;3.67;;
3427;SDS011;1727;42.624;23.406;2022-10-28T11:50:14;5.10;;;4.03;;
3427;SDS011;1727;42.624;23.406;2022-10-28T11:52:53;4.13;;;3.73;;
3427;SDS011;1727;42.624;23.406;2022-10-28T11:55:41;5.70;;;4.00;;
3427;SDS011;1727;42.624;23.406;2022-10-28T11:58:14;8.23;;;4.13;;
3427;SDS011;1727;42.624;23.406;2022-10-28T12:00:53;4.23;;;3.83;;
3427;SDS011;1727;42.624;23.406;2022-10-28T12:06:39;7.50;;;4.40;;
3427;SDS011;1727;42.624;23.406;2022-10-28T12:09:20;4.03;;;3.63;;
3427;SDS011;1727;42.624;23.406;2022-10-28T12:11:58;4.20;;;3.80;;
3427;SDS011;1727;42.624;23.406;2022-10-28T12:14:37;8.83;;;4.47;;
3427;SDS011;1727;42.624;23.406;2022-10-28T12:17:12;4.57;;;3.70;;
3427;SDS011;1727;42.624;23.406;2022-10-28T12:19:45;6.13;;;4.60;;
3427;SDS011;1727;42.624;23.406;2022-10-28T12:22:22;4.23;;;3.73;;
3427;SDS011;1727;42.624;23.406;2022-10-28T12:24:54;6.23;;;4.10;;
3427;SDS011;1727;42.624;23.406;2022-10-28T12:27:24;4.00;;;3.70;;
3427;SDS011;1727;42.624;23.406;2022-10-28T12:29:54;6.50;;;4.83;;
3427;SDS011;1727;42.624;23.406;2022-10-28T12:32:26;7.63;;;4.13;;
3427;SDS011;1727;42.624;23.406;2022-10-28T12:34:57;4.57;;;4.17;;
3427;SDS011;1727;42.624;23.406;2022-10-28T12:37:32;4.03;;;3.73;;
3427;SDS011;1727;42.624;23.406;2022-10-28T12:40:06;4.70;;;4.27;;
3427;SDS011;1727;42.624;23.406;2022-10-28T12:42:38;6.90;;;4.33;;
3427;SDS011;1727;42.624;23.406;2022-10-28T12:45:10;5.60;;;4.80;;
3427;SDS011;1727;42.624;23.406;2022-10-28T12:47:41;5.27;;;4.00;;
3427;SDS011;1727;42.624;23.406;2022-10-28T12:50:16;4.40;;;4.07;;
3427;SDS011;1727;42.624;23.406;2022-10-28T12:52:52;4.00;;;3.60;;
3427;SDS011;1727;42.624;23.406;2022-10-28T12:55:26;8.70;;;3.80;;
3427;SDS011;1727;42.624;23.406;2022-10-28T12:58:00;4.57;;;3.67;;
3427;SDS011;1727;42.624;23.406;2022-10-28T13:00:32;5.13;;;4.10;;
3427;SDS011;1727;42.624;23.406;2022-10-28T13:03:02;3.70;;;3.40;;
3427;SDS011;1727;42.624;23.406;2022-10-28T13:05:33;10.40;;;4.40;;
3427;SDS011;1727;42.624;23.406;2022-10-28T13:08:11;4.43;;;4.13;;
3427;SDS011;1727;42.624;23.406;2022-10-28T13:11:07;4.57;;;4.17;;
3427;SDS011;1727;42.624;23.406;2022-10-28T13:13:55;4.10;;;3.70;;
3427;SDS011;1727;42.624;23.406;2022-10-28T13:16:34;6.60;;;4.27;;
3427;SDS011;1727;42.624;23.406;2022-10-28T13:19:21;6.00;;;4.50;;
3427;SDS011;1727;42.624;23.406;2022-10-28T13:22:16;4.87;;;4.40;;
3427;SDS011;1727;42.624;23.406;2022-10-28T13:25:09;4.30;;;3.40;;
3427;SDS011;1727;42.624;23.406;2022-10-28T13:27:47;4.23;;;3.83;;
3427;SDS011;1727;42.624;23.406;2022-10-28T13:30:21;3.67;;;3.37;;
3427;SDS011;1727;42.624;23.406;2022-10-28T13:32:48;3.23;;;2.93;;
3427;SDS011;1727;42.624;23.406;2022-10-28T13:35:25;3.53;;;3.30;;
3427;SDS011;1727;42.624;23.406;2022-10-28T13:37:54;4.57;;;3.23;;
3427;SDS011;1727;42.624;23.406;2022-10-28T13:56:17;6.33;;;3.80;;
3427;SDS011;1727;42.624;23.406;2022-10-28T13:58:50;3.60;;;3.30;;
3427;SDS011;1727;42.624;23.406;2022-10-28T14:01:35;5.03;;;4.10;;
3427;SDS011;1727;42.624;23.406;2022-10-28T14:04:04;16.40;;;5.20;;
3427;SDS011;1727;42.624;23.406;2022-10-28T14:06:44;6.50;;;3.00;;
3427;SDS011;1727;42.624;23.406;2022-10-28T14:09:17;6.40;;;3.87;;
3427;SDS011;1727;42.624;23.406;2022-10-28T14:11:57;5.80;;;3.70;;
3427;SDS011;1727;42.624;23.406;2022-10-28T14:14:38;5.77;;;3.17;;
3427;SDS011;1727;42.624;23.406;2022-10-28T14:17:18;5.17;;;3.50;;
3427;SDS011;1727;42.624;23.406;2022-10-28T14:19:48;3.60;;;3.30;;
3427;SDS011;1727;42.624;23.406;2022-10-28T14:22:25;3.30;;;3.00;;
3427;SDS011;1727;42.624;23.406;2022-10-28T14:24:54;4.20;;;3.33;;
3427;SDS011;1727;42.624;23.406;2022-10-28T14:27:28;4.10;;;3.20;;
3427;SDS011;1727;42.624;23.406;2022-10-28T14:30:16;11.00;;;4.07;;
3427;SDS011;1727;42.624;23.406;2022-10-28T14:35:57;5.40;;;4.30;;
3427;SDS011;1727;42.624;23.406;2022-10-28T14:38:56;6.67;;;3.83;;
3427;SDS011;1727;42.624;23.406;2022-10-28T14:41:49;4.10;;;3.60;;
3427;SDS011;1727;42.624;23.406;2022-10-28T14:44:40;6.87;;;4.53;;
3427;SDS011;1727;42.624;23.406;2022-10-28T14:47:28;4.70;;;3.60;;
3427;SDS011;1727;42.624;23.406;2022-10-28T14:50:15;5.07;;;3.93;;
3427;SDS011;1727;42.624;23.406;2022-10-28T14:52:45;4.80;;;3.73;;
3427;SDS011;1727;42.624;23.406;2022-10-28T14:55:18;5.43;;;4.10;;
3427;SDS011;1727;42.624;23.406;2022-10-28T14:57:49;7.10;;;3.87;;
3427;SDS011;1727;42.624;23.406;2022-10-28T15:00:18;5.27;;;3.70;;
3427;SDS011;1727;42.624;23.406;2022-10-28T15:02:46;6.20;;;3.60;;
3427;SDS011;1727;42.624;23.406;2022-10-28T15:05:14;5.67;;;4.53;;
3427;SDS011;1727;42.624;23.406;2022-10-28T15:07:44;7.43;;;4.20;;
3427;SDS011;1727;42.624;23.406;2022-10-28T15:10:13;11.93;;;4.87;;
3427;SDS011;1727;42.624;23.406;2022-10-28T15:12:42;9.23;;;5.07;;
3427;SDS011;1727;42.624;23.406;2022-10-28T15:15:20;15.93;;;5.60;;
3427;SDS011;1727;42.624;23.406;2022-10-28T15:17:49;8.53;;;4.93;;
3427;SDS011;1727;42.624;23.406;2022-10-28T15:20:20;11.37;;;6.70;;
3427;SDS011;1727;42.624;23.406;2022-10-28T15:22:48;13.80;;;5.60;;
3427;SDS011;1727;42.624;23.406;2022-10-28T15:25:16;10.10;;;6.33;;
3427;SDS011;1727;42.624;23.406;2022-10-28T15:27:45;15.10;;;6.17;;
3427;SDS011;1727;42.624;23.406;2022-10-28T15:30:16;13.10;;;6.00;;
3427;SDS011;1727;42.624;23.406;2022-10-28T15:32:46;19.67;;;8.40;;
3427;SDS011;1727;42.624;23.406;2022-10-28T15:38:23;17.00;;;9.53;;
3427;SDS011;1727;42.624;23.406;2022-10-28T15:41:21;22.23;;;10.63;;
3427;SDS011;1727;42.624;23.406;2022-10-28T15:44:07;18.43;;;10.20;;
3427;SDS011;1727;42.624;23.406;2022-10-28T15:46:49;20.53;;;13.53;;
3427;SDS011;1727;42.624;23.406;2022-10-28T15:49:29;28.20;;;14.30;;
3427;SDS011;1727;42.624;23.406;2022-10-28T15:55:12;20.53;;;13.30;;
3427;SDS011;1727;42.624;23.406;2022-10-28T15:57:53;28.67;;;14.83;;
3427;SDS011;1727;42.624;23.406;2022-10-28T16:00:22;17.00;;;11.37;;
3427;SDS011;1727;42.624;23.406;2022-10-28T16:02:58;25.37;;;10.90;;
3427;SDS011;1727;42.624;23.406;2022-10-28T16:08:25;18.20;;;9.70;;
3427;SDS011;1727;42.624;23.406;2022-10-28T16:10:55;27.07;;;9.80;;